createdAt,value
2022-11-12T00:00:12.913Z,24.90
2022-11-12T00:01:12.934Z,17.00
2022-11-12T00:02:12.944Z,25.90
2022-11-12T00:03:12.959Z,26.20
2022-11-12T00:04:12.866Z,28.20
2022-11-12T00:05:12.868Z,22.90
2022-11-12T00:06:12.892Z,20.90
2022-11-12T00:07:12.884Z,21.80
2022-11-12T00:08:12.830Z,30.50
2022-11-12T00:09:12.860Z,28.70
2022-11-12T00:10:12.804Z,34.70
2022-11-12T00:11:12.794Z,28.70
2022-11-12T00:12:12.795Z,35.70
2022-11-12T00:13:12.783Z,28.80
2022-11-12T00:14:12.743Z,25.80
2022-11-12T00:15:12.801Z,33.50
2022-11-12T00:16:12.739Z,25.00
2022-11-12T00:17:12.732Z,31.60
2022-11-12T00:18:12.707Z,30.50
2022-11-12T00:19:12.705Z,32.60
2022-11-12T00:20:12.665Z,27.70
2022-11-12T00:21:12.745Z,29.60
2022-11-12T00:22:12.642Z,25.30
2022-11-12T00:23:12.671Z,29.50
2022-11-12T00:24:12.641Z,26.00
2022-11-12T00:25:12.611Z,26.70
2022-11-12T00:26:12.605Z,28.80
2022-11-12T00:27:12.618Z,30.10
2022-11-12T00:28:12.561Z,24.60
2022-11-12T00:29:12.562Z,26.70
2022-11-12T00:30:12.531Z,24.60
2022-11-12T00:31:12.547Z,32.80
2022-11-12T00:32:12.522Z,20.70
2022-11-12T00:33:12.548Z,27.00
2022-11-12T00:34:12.493Z,25.60
2022-11-12T00:35:14.012Z,20.30
2022-11-12T00:36:12.470Z,24.50
2022-11-12T00:37:12.446Z,26.00
2022-11-12T00:38:12.494Z,19.70
2022-11-12T00:39:12.443Z,19.20
2022-11-12T00:40:12.421Z,19.00
2022-11-12T00:41:12.432Z,20.00
2022-11-12T00:42:12.394Z,23.80
2022-11-12T00:43:12.380Z,23.10
2022-11-12T00:44:12.371Z,21.40
2022-11-12T00:45:12.374Z,20.60
2022-11-12T00:46:12.337Z,23.20
2022-11-12T00:47:12.318Z,23.60
2022-11-12T00:48:12.318Z,24.90
2022-11-12T00:49:12.297Z,21.50
2022-11-12T00:50:12.291Z,23.90
2022-11-12T00:51:12.348Z,19.00
2022-11-12T00:52:12.264Z,30.60
2022-11-12T00:53:12.233Z,23.60
2022-11-12T00:54:12.297Z,23.60
2022-11-12T00:55:12.212Z,30.90
2022-11-12T00:56:12.231Z,29.90
2022-11-12T00:57:12.223Z,26.30
2022-11-12T00:58:12.189Z,23.20
2022-11-12T00:59:12.169Z,27.60
2022-11-12T01:00:12.173Z,24.20
2022-11-12T01:01:12.246Z,25.70
2022-11-12T01:02:12.136Z,24.90
2022-11-12T01:03:12.202Z,28.70
2022-11-12T01:04:12.114Z,29.10
2022-11-12T01:05:12.087Z,24.90
2022-11-12T01:06:12.108Z,26.50
2022-11-12T01:07:12.137Z,27.10
2022-11-12T01:08:12.075Z,26.40
2022-11-12T01:09:12.076Z,27.10
2022-11-12T01:10:12.033Z,23.30
2022-11-12T01:11:12.009Z,28.70
2022-11-12T01:12:12.006Z,26.50
2022-11-12T01:13:11.980Z,25.80
2022-11-12T01:14:12.055Z,28.90
2022-11-12T01:15:11.993Z,28.30
2022-11-12T01:16:11.956Z,27.50
2022-11-12T01:17:11.948Z,25.40
2022-11-12T01:18:11.947Z,24.90
2022-11-12T01:19:11.908Z,24.70
2022-11-12T01:20:11.909Z,31.70
2022-11-12T01:21:11.942Z,27.40
2022-11-12T01:22:11.882Z,31.20
2022-11-12T01:23:11.845Z,24.50
2022-11-12T01:24:11.864Z,26.40
2022-11-12T01:25:11.844Z,25.00
2022-11-12T01:26:11.828Z,25.20
2022-11-12T01:27:11.832Z,26.20
2022-11-12T01:28:11.837Z,23.80
2022-11-12T01:29:11.782Z,24.40
2022-11-12T01:30:11.771Z,23.90
2022-11-12T01:31:11.761Z,27.60
2022-11-12T01:32:11.762Z,32.90
2022-11-12T01:33:11.747Z,27.30
2022-11-12T01:34:11.744Z,32.70
2022-11-12T01:35:11.705Z,34.10
2022-11-12T01:36:11.700Z,28.00
2022-11-12T01:37:11.685Z,52.60
2022-11-12T01:38:11.689Z,37.00
2022-11-12T01:39:11.677Z,27.40
2022-11-12T01:40:11.655Z,31.70
2022-11-12T01:41:11.614Z,31.70
2022-11-12T01:42:11.629Z,29.40
2022-11-12T01:43:11.591Z,29.80
2022-11-12T01:44:11.623Z,28.00
2022-11-12T01:45:11.608Z,27.50
2022-11-12T01:46:11.575Z,27.00
2022-11-12T01:47:11.541Z,26.00
2022-11-12T01:48:11.555Z,24.60
2022-11-12T01:49:11.521Z,27.70
2022-11-12T01:50:11.504Z,30.50
2022-11-12T01:51:11.536Z,27.10
2022-11-12T01:52:11.478Z,30.50
2022-11-12T01:53:11.477Z,35.40
2022-11-12T01:54:11.464Z,35.80
2022-11-12T01:55:11.451Z,33.00
2022-11-12T01:56:11.431Z,28.50
2022-11-12T01:57:11.477Z,33.10
2022-11-12T01:58:11.405Z,25.80
2022-11-12T01:59:11.397Z,33.30
2022-11-12T02:00:11.397Z,33.40
2022-11-12T02:01:11.420Z,35.00
2022-11-12T02:02:11.359Z,32.70
2022-11-12T02:03:11.387Z,39.30
2022-11-12T02:04:11.333Z,33.40
2022-11-12T02:05:11.341Z,38.70
2022-11-12T02:06:11.292Z,33.00
2022-11-12T02:07:11.321Z,43.70
2022-11-12T02:08:11.308Z,34.70
2022-11-12T02:09:11.317Z,38.80
2022-11-12T02:10:11.237Z,39.80
2022-11-12T02:11:11.278Z,33.60
2022-11-12T02:12:11.218Z,38.80
2022-11-12T02:13:11.217Z,35.80
2022-11-12T02:14:11.193Z,44.80
2022-11-12T02:15:11.225Z,41.20
2022-11-12T02:16:11.230Z,48.90
2022-11-12T02:17:11.172Z,44.80
2022-11-12T02:18:11.144Z,41.30
2022-11-12T02:19:11.138Z,46.60
2022-11-12T02:20:11.131Z,37.10
2022-11-12T02:21:11.153Z,46.30
2022-11-12T02:22:11.079Z,41.80
2022-11-12T02:23:11.134Z,50.40
2022-11-12T02:24:11.052Z,52.90
2022-11-12T02:25:11.076Z,40.20
2022-11-12T02:26:11.077Z,44.90
2022-11-12T02:27:11.104Z,44.40
2022-11-12T02:28:11.010Z,47.50
2022-11-12T02:29:11.072Z,47.30
2022-11-12T02:30:10.999Z,44.70
2022-11-12T02:31:10.984Z,36.80
2022-11-12T02:32:10.975Z,44.30
2022-11-12T02:33:11.020Z,47.60
2022-11-12T02:34:10.922Z,41.20
2022-11-12T02:35:10.934Z,49.80
2022-11-12T02:36:10.902Z,43.10
2022-11-12T02:37:10.950Z,45.90
2022-11-12T02:38:10.884Z,59.40
2022-11-12T02:39:10.918Z,59.10
2022-11-12T02:40:10.858Z,61.50
2022-11-12T02:41:10.882Z,58.10
2022-11-12T02:42:10.825Z,64.60
2022-11-12T02:43:10.820Z,60.80
2022-11-12T02:44:10.790Z,81.00
2022-11-12T02:45:10.833Z,78.10
2022-11-12T02:46:10.776Z,84.80
2022-11-12T02:47:10.777Z,72.50
2022-11-12T02:48:15.126Z,57.80
2022-11-12T02:49:10.762Z,61.10
2022-11-12T02:50:10.715Z,68.70
2022-11-12T02:51:10.771Z,62.30
2022-11-12T02:52:10.697Z,51.70
2022-11-12T02:53:10.690Z,61.80
2022-11-12T02:54:10.686Z,56.10
2022-11-12T02:55:10.680Z,58.80
2022-11-12T02:56:10.656Z,59.60
2022-11-12T02:57:10.698Z,55.00
2022-11-12T02:58:10.619Z,65.40
2022-11-12T02:59:10.627Z,69.20
2022-11-12T03:00:10.652Z,67.40
2022-11-12T03:01:10.674Z,60.50
2022-11-12T03:02:10.577Z,57.00
2022-11-12T03:03:10.638Z,43.80
2022-11-12T03:04:10.544Z,59.70
2022-11-12T03:05:10.550Z,55.20
2022-11-12T03:06:10.585Z,69.90
2022-11-12T03:07:10.537Z,51.60
2022-11-12T03:08:10.520Z,48.50
2022-11-12T03:09:10.532Z,51.10
2022-11-12T03:10:10.475Z,60.70
2022-11-12T03:11:10.519Z,44.10
2022-11-12T03:12:10.467Z,52.20
2022-11-12T03:13:10.436Z,46.00
2022-11-12T03:14:10.420Z,42.80
2022-11-12T03:15:10.445Z,41.00
2022-11-12T03:16:10.414Z,49.40
2022-11-12T03:17:10.384Z,45.60
2022-11-12T03:18:10.374Z,45.60
2022-11-12T03:19:10.360Z,40.30
2022-11-12T03:20:10.327Z,44.10
2022-11-12T03:21:10.382Z,48.90
2022-11-12T03:22:10.318Z,46.30
2022-11-12T03:23:10.320Z,55.20
2022-11-12T03:24:10.291Z,55.20
2022-11-12T03:25:10.303Z,51.50
2022-11-12T03:26:10.279Z,53.30
2022-11-12T03:27:10.291Z,56.50
2022-11-12T03:28:10.225Z,54.20
2022-11-12T03:29:10.235Z,48.70
2022-11-12T03:30:10.203Z,53.60
2022-11-12T03:31:10.211Z,53.20
2022-11-12T03:32:10.201Z,46.60
2022-11-12T03:33:10.267Z,49.90
2022-11-12T03:34:10.145Z,50.60
2022-11-12T03:35:10.164Z,46.90
2022-11-12T03:36:10.134Z,56.50
2022-11-12T03:37:10.218Z,44.90
2022-11-12T03:38:10.113Z,59.20
2022-11-12T03:39:10.140Z,69.00
2022-11-12T03:40:10.102Z,61.20
2022-11-12T03:41:10.088Z,49.80
2022-11-12T03:42:10.061Z,46.40
2022-11-12T03:43:10.052Z,59.40
2022-11-12T03:44:10.018Z,48.80
2022-11-12T03:45:10.061Z,45.40
2022-11-12T03:46:10.003Z,49.20
2022-11-12T03:47:09.997Z,38.20
2022-11-12T03:48:10.009Z,47.60
2022-11-12T03:49:09.986Z,43.20
2022-11-12T03:50:09.981Z,69.80
2022-11-12T03:51:09.951Z,47.30
2022-11-12T03:52:09.914Z,50.50
2022-11-12T03:53:09.942Z,44.70
2022-11-12T03:54:09.897Z,49.20
2022-11-12T03:55:09.914Z,46.90
2022-11-12T03:56:09.916Z,46.80
2022-11-12T03:57:09.878Z,44.10
2022-11-12T03:58:09.857Z,45.80
2022-11-12T03:59:09.850Z,46.30
2022-11-12T04:00:09.898Z,43.50
2022-11-12T04:01:09.900Z,45.10
2022-11-12T04:02:09.838Z,51.20
2022-11-12T04:03:09.800Z,43.80
2022-11-12T04:04:09.763Z,41.30
2022-11-12T04:05:09.772Z,44.10
2022-11-12T04:06:09.743Z,35.40
2022-11-12T04:07:09.852Z,37.60
2022-11-12T04:08:09.743Z,34.00
2022-11-12T04:09:09.704Z,37.60
2022-11-12T04:10:09.678Z,31.40
2022-11-12T04:11:09.685Z,34.10
2022-11-12T04:12:09.708Z,33.50
2022-11-12T04:13:09.670Z,32.60
2022-11-12T04:14:09.642Z,31.40
2022-11-12T04:15:09.654Z,32.50
2022-11-12T04:16:09.644Z,33.30
2022-11-12T04:17:09.614Z,32.60
2022-11-12T04:18:09.625Z,28.70
2022-11-12T04:19:09.583Z,30.70
2022-11-12T04:20:09.617Z,33.10
2022-11-12T04:21:09.563Z,25.90
2022-11-12T04:22:09.536Z,33.40
2022-11-12T04:23:09.569Z,32.00
2022-11-12T04:24:09.539Z,31.00
2022-11-12T04:25:09.507Z,28.80
2022-11-12T04:26:09.483Z,30.20
2022-11-12T04:27:09.477Z,30.10
2022-11-12T04:28:09.480Z,27.30
2022-11-12T04:29:09.502Z,24.10
2022-11-12T04:30:09.456Z,27.30
2022-11-12T04:31:09.450Z,31.70
2022-11-12T04:32:09.423Z,29.90
2022-11-12T04:33:09.480Z,29.70
2022-11-12T04:34:09.384Z,28.20
2022-11-12T04:35:09.488Z,30.10
2022-11-12T04:36:09.349Z,31.30
2022-11-12T04:37:09.347Z,29.60
2022-11-12T04:38:09.330Z,27.40
2022-11-12T04:39:09.343Z,29.20
2022-11-12T04:40:09.329Z,25.00
2022-11-12T04:41:09.358Z,24.80
2022-11-12T04:42:09.284Z,24.70
2022-11-12T04:43:09.285Z,25.30
2022-11-12T04:44:09.245Z,26.20
2022-11-12T04:45:09.254Z,26.90
2022-11-12T04:46:09.277Z,26.30
2022-11-12T04:47:09.215Z,32.20
2022-11-12T04:48:09.187Z,28.00
2022-11-12T04:49:09.244Z,32.70
2022-11-12T04:50:09.169Z,33.50
2022-11-12T04:51:09.196Z,30.20
2022-11-12T04:52:09.144Z,37.80
2022-11-12T04:53:09.191Z,42.30
2022-11-12T04:54:09.125Z,32.30
2022-11-12T04:55:09.119Z,39.00
2022-11-12T04:56:09.099Z,37.40
2022-11-12T04:57:09.143Z,42.80
2022-11-12T04:58:09.059Z,38.00
2022-11-12T04:59:09.067Z,37.30
2022-11-12T05:00:09.124Z,37.80
2022-11-12T05:01:09.090Z,40.20
2022-11-12T05:02:09.060Z,40.60
2022-11-12T05:03:09.037Z,38.10
2022-11-12T05:04:08.997Z,35.60
2022-11-12T05:05:09.013Z,37.00
2022-11-12T05:06:08.965Z,41.40
2022-11-12T05:07:09.086Z,42.90
2022-11-12T05:08:08.961Z,43.90
2022-11-12T05:09:08.974Z,44.70
2022-11-12T05:10:08.920Z,46.00
2022-11-12T05:11:12.838Z,40.10
2022-11-12T05:12:08.884Z,33.60
2022-11-12T05:13:08.962Z,33.00
2022-11-12T05:14:08.879Z,35.60
2022-11-12T05:15:08.872Z,36.00
2022-11-12T05:16:08.842Z,32.20
2022-11-12T05:17:08.843Z,29.30
2022-11-12T05:18:08.862Z,27.90
2022-11-12T05:19:08.831Z,28.40
2022-11-12T05:20:08.811Z,25.60
2022-11-12T05:21:08.783Z,26.60
2022-11-12T05:22:17.507Z,30.10
2022-11-12T05:23:08.787Z,27.90
2022-11-12T05:24:22.146Z,32.90
2022-11-12T05:25:08.730Z,30.30
2022-11-12T05:26:08.707Z,28.60
2022-11-12T05:27:08.700Z,34.00
2022-11-12T05:28:08.706Z,35.00
2022-11-12T05:29:09.098Z,25.30
2022-11-12T05:30:08.679Z,30.20
2022-11-12T05:31:08.661Z,31.50
2022-11-12T05:32:08.664Z,30.70
2022-11-12T05:33:08.627Z,28.90
2022-11-12T05:34:08.588Z,28.00
2022-11-12T05:35:08.635Z,28.90
2022-11-12T05:36:08.657Z,25.90
2022-11-12T05:37:08.583Z,32.20
2022-11-12T05:38:08.548Z,32.40
2022-11-12T05:39:08.546Z,32.40
2022-11-12T05:40:08.538Z,36.20
2022-11-12T05:41:08.544Z,35.30
2022-11-12T05:42:13.532Z,37.70
2022-11-12T05:43:08.504Z,34.90
2022-11-12T05:44:08.526Z,31.40
2022-11-12T05:45:08.519Z,31.90
2022-11-12T05:46:08.467Z,31.30
2022-11-12T05:47:08.456Z,31.00
2022-11-12T05:48:08.469Z,32.30
2022-11-12T05:49:08.438Z,32.60
2022-11-12T05:50:08.393Z,33.10
2022-11-12T05:51:15.463Z,29.50
2022-11-12T05:52:08.407Z,34.60
2022-11-12T05:53:08.419Z,33.00
2022-11-12T05:54:08.344Z,32.90
2022-11-12T05:55:08.364Z,40.30
2022-11-12T05:56:08.356Z,49.40
2022-11-12T05:57:08.345Z,43.40
2022-11-12T05:58:08.286Z,34.80
2022-11-12T05:59:08.297Z,34.50
2022-11-12T06:00:08.270Z,30.20
2022-11-12T06:01:08.345Z,31.00
2022-11-12T06:02:08.305Z,32.90
2022-11-12T06:03:08.282Z,32.60
2022-11-12T06:04:08.206Z,26.90
2022-11-12T06:05:08.211Z,27.60
2022-11-12T06:06:08.218Z,29.70
2022-11-12T06:07:08.245Z,33.00
2022-11-12T06:08:08.164Z,33.90
2022-11-12T06:09:08.091Z,36.10
2022-11-12T06:10:08.093Z,30.90
2022-11-12T06:11:08.109Z,33.90
2022-11-12T06:12:08.067Z,29.00
2022-11-12T06:13:08.044Z,34.40
2022-11-12T06:14:08.059Z,32.10
2022-11-12T06:15:08.070Z,37.30
2022-11-12T06:16:08.011Z,42.00
2022-11-12T06:17:07.981Z,39.40
2022-11-12T06:18:08.023Z,34.60
2022-11-12T06:19:07.987Z,45.90
2022-11-12T06:20:07.981Z,32.80
2022-11-12T06:21:07.927Z,34.40
2022-11-12T06:22:07.953Z,29.80
2022-11-12T06:23:07.910Z,40.20
2022-11-12T06:24:07.906Z,36.00
2022-11-12T06:25:07.936Z,30.60
2022-11-12T06:26:07.906Z,24.10
2022-11-12T06:27:07.852Z,25.30
2022-11-12T06:28:07.885Z,26.60
2022-11-12T06:29:07.856Z,22.10
2022-11-12T06:30:07.872Z,26.40
2022-11-12T06:31:07.825Z,27.10
2022-11-12T06:32:07.863Z,26.40
2022-11-12T06:33:07.788Z,23.30
2022-11-12T06:34:07.788Z,26.80
2022-11-12T06:35:07.760Z,26.60
2022-11-12T06:36:07.861Z,30.00
2022-11-12T06:37:07.736Z,21.10
2022-11-12T06:38:07.753Z,26.90
2022-11-12T06:39:07.706Z,30.20
2022-11-12T06:40:07.726Z,28.00
2022-11-12T06:41:07.723Z,28.00
2022-11-12T06:42:07.709Z,36.80
2022-11-12T06:43:07.683Z,37.60
2022-11-12T06:44:07.661Z,41.80
2022-11-12T06:45:07.636Z,32.80
2022-11-12T06:46:07.631Z,52.80
2022-11-12T06:47:07.628Z,33.00
2022-11-12T06:48:07.617Z,39.60
2022-11-12T06:49:07.570Z,49.10
2022-11-12T06:50:07.628Z,47.90
2022-11-12T06:51:07.549Z,61.50
2022-11-12T06:52:10.060Z,55.40
2022-11-12T06:53:07.531Z,59.30
2022-11-12T06:54:07.514Z,66.60
2022-11-12T06:55:07.515Z,48.10
2022-11-12T06:56:07.521Z,62.30
2022-11-12T06:57:07.493Z,40.00
2022-11-12T06:58:07.495Z,47.90
2022-11-12T06:59:07.505Z,50.90
2022-11-12T07:00:07.444Z,54.80
2022-11-12T07:02:03.328Z,47.50
2022-11-12T07:03:04.259Z,43.90
2022-11-12T07:04:04.215Z,41.70
2022-11-12T07:05:04.195Z,46.30
2022-11-12T07:06:04.261Z,44.70
2022-11-12T07:07:07.933Z,49.40
2022-11-12T07:08:04.245Z,56.20
2022-11-12T07:09:04.164Z,49.20
2022-11-12T07:10:04.155Z,52.20
2022-11-12T07:11:04.128Z,47.30
2022-11-12T07:12:04.107Z,46.60
2022-11-12T07:13:04.107Z,47.70
2022-11-12T07:14:04.126Z,39.90
2022-11-12T07:15:04.060Z,40.80
2022-11-12T07:16:04.045Z,47.90
2022-11-12T07:17:04.032Z,52.40
2022-11-12T07:18:04.052Z,53.00
2022-11-12T07:19:04.019Z,55.20
2022-11-12T07:20:04.389Z,56.00
2022-11-12T07:21:03.964Z,58.20
2022-11-12T07:22:04.002Z,61.50
2022-11-12T07:23:03.958Z,48.40
2022-11-12T07:24:03.946Z,66.00
2022-11-12T07:25:03.961Z,62.30
2022-11-12T07:26:03.939Z,62.90
2022-11-12T07:27:03.888Z,48.60
2022-11-12T07:28:03.908Z,61.40
2022-11-12T07:29:03.866Z,44.00
2022-11-12T07:30:03.868Z,57.00
2022-11-12T07:31:03.916Z,47.30
2022-11-12T07:32:03.884Z,56.50
2022-11-12T07:33:03.819Z,48.00
2022-11-12T07:34:03.816Z,52.70
2022-11-12T07:35:03.790Z,61.80
2022-11-12T07:36:03.837Z,56.70
2022-11-12T07:37:03.770Z,43.60
2022-11-12T07:38:03.792Z,56.30
2022-11-12T07:39:03.742Z,60.40
2022-11-12T07:40:03.746Z,53.70
2022-11-12T07:41:03.712Z,45.60
2022-11-12T07:42:03.783Z,60.40
2022-11-12T07:43:03.694Z,60.40
2022-11-12T07:44:03.699Z,68.30
2022-11-12T07:45:03.663Z,53.80
2022-11-12T07:46:10.082Z,71.30
2022-11-12T07:47:03.684Z,77.80
2022-11-12T07:48:03.648Z,78.60
2022-11-12T07:49:03.637Z,122.90
2022-11-12T07:50:03.621Z,119.60
2022-11-12T07:51:03.608Z,114.50
2022-11-12T07:52:03.594Z,89.60
2022-11-12T07:53:03.600Z,105.00
2022-11-12T07:54:03.560Z,93.00
2022-11-12T07:55:03.549Z,84.20
2022-11-12T07:56:03.557Z,88.20
2022-11-12T07:57:03.505Z,119.50
2022-11-12T07:58:03.551Z,85.90
2022-11-12T07:59:03.487Z,81.70
2022-11-12T08:00:03.488Z,78.30
2022-11-12T08:01:03.467Z,110.10
2022-11-12T08:02:03.462Z,92.30
2022-11-12T08:03:03.433Z,138.30
2022-11-12T08:04:03.457Z,131.30
2022-11-12T08:05:06.200Z,129.80
2022-11-12T08:06:03.427Z,151.80
2022-11-12T08:07:03.505Z,143.70
2022-11-12T08:08:03.593Z,119.40
2022-11-12T08:09:03.400Z,132.00
2022-11-12T08:10:03.367Z,135.80
2022-11-12T08:11:03.338Z,121.10
2022-11-12T08:12:03.341Z,95.70
2022-11-12T08:13:03.317Z,88.80
2022-11-12T08:14:03.320Z,89.10
2022-11-12T08:15:03.350Z,90.70
2022-11-12T08:16:03.278Z,95.70
2022-11-12T08:17:03.256Z,105.70
2022-11-12T08:18:03.265Z,105.00
2022-11-12T08:19:03.227Z,87.80
2022-11-12T08:20:03.263Z,101.20
2022-11-12T08:21:03.212Z,106.70
2022-11-12T08:22:03.221Z,107.90
2022-11-12T08:23:03.221Z,99.50
2022-11-12T08:24:03.184Z,89.60
2022-11-12T08:25:03.171Z,93.00
2022-11-12T08:26:03.179Z,86.90
2022-11-12T08:27:03.157Z,83.70
2022-11-12T08:28:03.125Z,74.10
2022-11-12T08:29:08.048Z,85.20
2022-11-12T08:30:03.115Z,98.90
2022-11-12T08:31:03.109Z,82.30
2022-11-12T08:32:03.080Z,90.10
2022-11-12T08:33:03.054Z,79.20
2022-11-12T08:34:03.108Z,58.60
2022-11-12T08:35:03.044Z,61.80
2022-11-12T08:36:03.024Z,53.70
2022-11-12T08:37:03.023Z,76.20
2022-11-12T08:38:03.017Z,74.30
2022-11-12T08:39:02.974Z,75.10
2022-11-12T08:40:02.984Z,79.20
2022-11-12T08:41:02.992Z,73.00
2022-11-12T08:42:02.980Z,86.80
2022-11-12T08:43:02.928Z,66.30
2022-11-12T08:44:08.100Z,75.30
2022-11-12T08:45:02.939Z,74.90
2022-11-12T08:46:02.895Z,76.10
2022-11-12T08:47:02.902Z,99.70
2022-11-12T08:48:02.928Z,85.40
2022-11-12T08:49:02.866Z,85.00
2022-11-12T08:50:02.911Z,66.50
2022-11-12T08:51:02.843Z,84.00
2022-11-12T08:52:02.838Z,78.70
2022-11-12T08:53:02.855Z,85.70
2022-11-12T08:54:02.792Z,103.40
2022-11-12T08:55:02.769Z,95.30
2022-11-12T08:56:02.805Z,77.00
2022-11-12T08:57:02.755Z,82.30
2022-11-12T08:58:02.734Z,78.90
2022-11-12T08:59:07.230Z,99.60
2022-11-12T09:00:02.703Z,96.80
2022-11-12T09:01:02.717Z,84.00
2022-11-12T09:02:02.726Z,104.00
2022-11-12T09:03:02.698Z,96.70
2022-11-12T09:04:02.678Z,100.40
2022-11-12T09:05:02.678Z,85.10
2022-11-12T09:06:02.674Z,90.50
2022-11-12T09:07:02.667Z,80.20
2022-11-12T09:08:02.693Z,108.40
2022-11-12T09:09:02.667Z,100.10
2022-11-12T09:10:02.573Z,95.40
2022-11-12T09:11:02.582Z,80.40
2022-11-12T09:12:10.494Z,94.00
2022-11-12T09:13:02.569Z,122.30
2022-11-12T09:14:02.605Z,108.40
2022-11-12T09:15:35.665Z,72.50
2022-11-12T09:16:02.540Z,81.60
2022-11-12T09:17:02.502Z,110.50
2022-11-12T09:18:02.476Z,111.30
2022-11-12T09:19:02.477Z,137.70
2022-11-12T09:20:02.492Z,93.70
2022-11-12T09:21:02.447Z,99.30
2022-11-12T09:22:02.429Z,84.60
2022-11-12T09:23:02.423Z,86.70
2022-11-12T09:24:02.431Z,102.10
2022-11-12T09:26:53.650Z,81.10
2022-11-12T09:27:54.608Z,87.70
2022-11-12T09:28:54.589Z,75.20
2022-11-12T09:29:54.561Z,95.70
2022-11-12T09:30:54.624Z,110.70
2022-11-12T09:31:54.540Z,103.20
2022-11-12T09:32:54.557Z,101.20
2022-11-12T09:33:54.536Z,110.80
2022-11-12T09:34:54.525Z,107.10
2022-11-12T09:35:54.488Z,116.40
2022-11-12T09:36:54.537Z,104.80
2022-11-12T09:37:54.459Z,100.80
2022-11-12T09:38:54.478Z,92.30
2022-11-12T09:39:54.571Z,126.50
2022-11-12T09:40:54.436Z,82.40
2022-11-12T09:41:59.234Z,89.60
2022-11-12T09:42:54.471Z,87.10
2022-11-12T09:43:54.379Z,95.30
2022-11-12T09:44:54.377Z,99.00
2022-11-12T09:46:13.562Z,103.50
2022-11-12T09:46:54.370Z,83.40
2022-11-12T09:47:54.387Z,111.90
2022-11-12T09:48:54.359Z,92.80
2022-11-12T09:49:54.301Z,92.30
2022-11-12T09:50:54.305Z,92.70
2022-11-12T09:51:54.293Z,117.50
2022-11-12T09:52:54.318Z,79.10
2022-11-12T09:53:54.303Z,90.30
2022-11-12T09:54:54.246Z,79.00
2022-11-12T09:55:54.254Z,112.90
2022-11-12T09:56:54.239Z,95.10
2022-11-12T09:57:54.196Z,105.20
2022-11-12T09:58:54.235Z,106.00
2022-11-12T09:59:54.205Z,80.40
2022-11-12T10:00:54.201Z,160.90
2022-11-12T10:01:54.181Z,58.00
2022-11-12T10:02:54.159Z,79.90
2022-11-12T10:03:54.170Z,74.30
2022-11-12T10:04:54.117Z,131.60
2022-11-12T10:05:54.096Z,86.20
2022-11-12T10:06:54.170Z,80.50
2022-11-12T10:07:54.088Z,113.70
2022-11-12T10:08:54.071Z,86.70
2022-11-12T10:09:54.071Z,98.20
2022-11-12T10:10:54.054Z,89.70
2022-11-12T10:11:54.039Z,100.00
2022-11-12T10:12:54.020Z,83.30
2022-11-12T10:13:54.033Z,88.70
2022-11-12T10:14:54.019Z,92.60
2022-11-12T10:15:53.963Z,85.50
2022-11-12T10:16:53.974Z,70.20
2022-11-12T10:17:53.962Z,83.90
2022-11-12T10:18:53.937Z,72.40
2022-11-12T10:19:53.931Z,91.00
2022-11-12T10:20:53.941Z,87.40
2022-11-12T10:21:53.886Z,97.40
2022-11-12T10:22:53.908Z,87.10
2022-11-12T10:23:53.876Z,97.20
2022-11-12T10:24:53.865Z,104.80
2022-11-12T10:25:53.913Z,94.50
2022-11-12T10:26:53.884Z,100.50
2022-11-12T10:27:53.804Z,94.30
2022-11-12T10:28:53.844Z,92.30
2022-11-12T10:29:53.772Z,103.20
2022-11-12T10:30:53.782Z,90.50
2022-11-12T10:31:53.802Z,97.20
2022-11-12T10:32:53.753Z,131.60
2022-11-12T10:33:53.734Z,101.70
2022-11-12T10:34:53.720Z,99.40
2022-11-12T10:35:53.723Z,70.90
2022-11-12T10:36:55.434Z,77.20
2022-11-12T10:37:53.690Z,66.60
2022-11-12T10:38:53.684Z,85.80
2022-11-12T10:39:53.651Z,82.00
2022-11-12T10:40:53.681Z,98.70
2022-11-12T10:41:53.643Z,71.20
2022-11-12T10:42:53.642Z,87.10
2022-11-12T10:43:53.631Z,91.20
2022-11-12T10:44:53.577Z,70.50
2022-11-12T10:45:53.645Z,82.10
2022-11-12T10:46:53.566Z,102.90
2022-11-12T10:47:53.611Z,68.50
2022-11-12T10:48:53.533Z,115.30
2022-11-12T10:49:53.542Z,106.90
2022-11-12T10:50:53.504Z,92.80
2022-11-12T10:51:53.676Z,88.10
2022-11-12T10:52:53.549Z,57.20
2022-11-12T10:53:53.533Z,74.20
2022-11-12T10:54:55.236Z,81.70
2022-11-12T10:55:53.466Z,64.90
2022-11-12T10:56:55.829Z,75.40
2022-11-12T10:57:53.468Z,51.00
2022-11-12T10:58:53.483Z,63.60
2022-11-12T10:59:53.413Z,65.30
2022-11-12T11:00:53.389Z,101.40
2022-11-12T11:01:53.403Z,87.00
2022-11-12T11:02:53.344Z,102.30
2022-11-12T11:03:53.345Z,70.50
2022-11-12T11:04:53.386Z,69.60
2022-11-12T11:05:53.327Z,69.70
2022-11-12T11:06:53.316Z,90.90
2022-11-12T11:07:53.321Z,76.90
2022-11-12T11:08:53.271Z,63.50
2022-11-12T11:09:53.310Z,90.70
2022-11-12T11:10:53.288Z,53.40
2022-11-12T11:11:53.260Z,47.50
2022-11-12T11:12:53.219Z,72.80
2022-11-12T11:13:55.729Z,77.50
2022-11-12T11:14:53.189Z,101.70
2022-11-12T11:15:53.220Z,94.20
2022-11-12T11:16:53.185Z,68.20
2022-11-12T11:17:53.286Z,84.70
2022-11-12T11:18:53.158Z,132.10
2022-11-12T11:19:53.164Z,105.90
2022-11-12T11:20:53.165Z,56.80
2022-11-12T11:21:53.142Z,99.40
2022-11-12T11:22:53.085Z,62.90
2022-11-12T11:23:53.079Z,91.90
2022-11-12T11:24:53.067Z,115.30
2022-11-12T11:25:53.059Z,57.90
2022-11-12T11:26:53.054Z,101.00
2022-11-12T11:27:53.029Z,88.50
2022-11-12T11:28:53.205Z,84.70
2022-11-12T11:29:53.014Z,92.60
2022-11-12T11:30:52.992Z,75.30
2022-11-12T11:31:53.034Z,82.00
2022-11-12T11:32:52.947Z,95.50
2022-11-12T11:33:52.949Z,105.70
2022-11-12T11:34:52.962Z,114.30
2022-11-12T11:35:52.929Z,92.60
2022-11-12T11:36:52.901Z,108.10
2022-11-12T11:37:57.350Z,140.00
2022-11-12T11:38:52.874Z,69.60
2022-11-12T11:39:52.867Z,98.90
2022-11-12T11:40:52.867Z,86.50
2022-11-12T11:41:52.860Z,112.70
2022-11-12T11:42:52.856Z,82.40
2022-11-12T11:43:52.870Z,73.90
2022-11-12T11:44:52.795Z,93.10
2022-11-12T11:45:52.798Z,77.80
2022-11-12T11:46:52.766Z,99.40
2022-11-12T11:48:02.104Z,109.10
2022-11-12T11:48:52.768Z,148.10
2022-11-12T11:49:52.733Z,105.60
2022-11-12T11:50:52.713Z,111.80
2022-11-12T11:51:52.714Z,90.40
2022-11-12T11:52:52.684Z,99.00
2022-11-12T11:53:52.714Z,76.60
2022-11-12T11:54:52.694Z,97.70
2022-11-12T11:55:52.656Z,89.40
2022-11-12T11:56:52.639Z,103.00
2022-11-12T11:57:52.670Z,99.00
2022-11-12T11:58:52.636Z,97.70
2022-11-12T11:59:52.620Z,103.00
2022-11-12T12:00:52.595Z,86.60
2022-11-12T12:01:52.575Z,77.20
2022-11-12T12:02:52.549Z,80.30
2022-11-12T12:03:52.598Z,105.90
2022-11-12T12:04:52.552Z,93.60
2022-11-12T12:05:52.534Z,90.60
2022-11-12T12:06:52.564Z,112.10
2022-11-12T12:07:52.520Z,127.40
2022-11-12T12:08:52.489Z,84.80
2022-11-12T12:09:52.512Z,67.40
2022-11-12T12:11:07.680Z,90.50
2022-11-12T12:11:52.452Z,83.40
2022-11-12T12:12:52.507Z,66.20
2022-11-12T12:13:52.582Z,102.70
2022-11-12T12:14:52.401Z,91.80
2022-11-12T12:15:52.457Z,101.10
2022-11-12T12:16:52.373Z,108.10
2022-11-12T12:17:52.371Z,77.40
2022-11-12T12:18:52.365Z,81.40
2022-11-12T12:19:52.461Z,68.80
2022-11-12T12:20:52.372Z,92.90
2022-11-12T12:21:52.371Z,65.90
2022-11-12T12:22:52.347Z,60.70
2022-11-12T12:23:52.309Z,52.60
2022-11-12T12:24:52.294Z,56.20
2022-11-12T12:25:54.986Z,60.30
2022-11-12T12:26:52.302Z,70.80
2022-11-12T12:27:52.238Z,54.70
2022-11-12T12:28:52.468Z,56.30
2022-11-12T12:29:52.224Z,58.70
2022-11-12T12:30:52.231Z,84.80
2022-11-12T12:31:52.219Z,54.00
2022-11-12T12:32:52.246Z,47.80
2022-11-12T12:33:52.166Z,54.60
2022-11-12T12:34:52.130Z,64.40
2022-11-12T12:35:52.160Z,88.60
2022-11-12T12:36:52.105Z,51.70
2022-11-12T12:37:52.161Z,51.00
2022-11-12T12:38:52.090Z,49.00
2022-11-12T12:39:52.075Z,90.50
2022-11-12T12:40:52.056Z,76.50
2022-11-12T12:41:52.159Z,54.90
2022-11-12T12:42:52.139Z,59.90
2022-11-12T12:43:52.068Z,59.30
2022-11-12T12:44:52.008Z,52.50
2022-11-12T12:45:52.004Z,87.00
2022-11-12T12:46:52.094Z,86.80
2022-11-12T12:47:52.019Z,81.50
2022-11-12T12:48:51.991Z,109.80
2022-11-12T12:49:51.947Z,69.60
2022-11-12T12:50:51.929Z,94.60
2022-11-12T12:51:55.806Z,74.00
2022-11-12T12:52:51.893Z,88.30